createdAt,value
2018-04-16T00:02:17.146Z,100.00
2018-04-16T00:04:45.613Z,100.00
2018-04-16T00:07:14.109Z,100.00
2018-04-16T00:09:42.572Z,100.00
2018-04-16T00:12:11.055Z,100.00
2018-04-16T00:14:39.540Z,100.00
2018-04-16T00:17:07.992Z,100.00
2018-04-16T00:19:36.440Z,100.00
2018-04-16T00:22:04.945Z,100.00
2018-04-16T00:24:33.395Z,100.00
2018-04-16T00:27:01.884Z,100.00
2018-04-16T00:29:30.373Z,100.00
2018-04-16T00:32:04.189Z,100.00
2018-04-16T00:34:38.292Z,100.00
2018-04-16T00:37:12.124Z,100.00
2018-04-16T00:39:46.026Z,100.00
2018-04-16T00:42:20.021Z,100.00
2018-04-16T00:44:54.110Z,100.00
2018-04-16T00:47:28.232Z,100.00
2018-04-16T00:50:02.313Z,100.00
2018-04-16T00:52:36.181Z,100.00
2018-04-16T00:55:10.184Z,100.00
2018-04-16T00:57:44.135Z,100.00
2018-04-16T01:00:18.260Z,100.00
2018-04-16T01:02:52.261Z,100.00
2018-04-16T01:05:26.175Z,100.00
2018-04-16T01:08:00.156Z,100.00
2018-04-16T01:10:34.225Z,100.00
2018-04-16T01:13:08.270Z,100.00
2018-04-16T01:15:42.253Z,100.00
2018-04-16T01:18:16.272Z,100.00
2018-04-16T01:23:56.196Z,82.96
2018-04-16T01:26:30.230Z,84.28
2018-04-16T01:29:04.305Z,83.90
2018-04-16T01:31:38.312Z,84.15
2018-04-16T01:34:12.348Z,83.79
2018-04-16T01:36:46.304Z,82.92
2018-04-16T01:39:20.322Z,83.33
2018-04-16T01:41:54.320Z,84.27
2018-04-16T01:44:28.186Z,83.73
2018-04-16T01:47:02.337Z,83.81
2018-04-16T01:49:36.164Z,83.78
2018-04-16T01:52:10.350Z,83.80
2018-04-16T01:54:44.325Z,83.92
2018-04-16T01:57:18.241Z,83.80
2018-04-16T01:59:52.241Z,83.57
2018-04-16T02:02:26.241Z,84.26
2018-04-16T02:05:00.232Z,84.05
2018-04-16T02:07:34.236Z,83.87
2018-04-16T02:10:08.244Z,83.82
2018-04-16T02:15:44.318Z,84.05
2018-04-16T02:18:18.249Z,83.95
2018-04-16T02:23:52.460Z,84.42
2018-04-16T02:26:26.528Z,84.95
2018-04-16T02:29:00.400Z,84.50
2018-04-16T02:31:34.361Z,84.26
2018-04-16T02:34:08.547Z,84.13
2018-04-16T02:36:42.588Z,84.14
2018-04-16T02:39:16.698Z,84.16
2018-04-16T02:41:50.672Z,84.06
2018-04-16T02:44:24.960Z,82.78
2018-04-16T02:46:58.904Z,83.73
2018-04-16T02:49:32.748Z,83.95
2018-04-16T02:52:06.760Z,84.30
2018-04-16T02:54:40.749Z,84.02
2018-04-16T02:57:14.718Z,83.79
2018-04-16T02:59:48.729Z,84.36
2018-04-16T03:05:31.009Z,85.15
2018-04-16T03:08:05.044Z,85.08
2018-04-16T03:10:38.985Z,85.60
2018-04-16T03:13:12.827Z,85.32
2018-04-16T03:15:46.773Z,85.14
2018-04-16T03:18:20.856Z,84.99
2018-04-16T03:20:54.911Z,84.54
2018-04-16T03:23:28.740Z,84.79
2018-04-16T03:26:03.129Z,84.76
2018-04-16T03:28:37.131Z,85.29
2018-04-16T03:31:10.980Z,85.07
2018-04-16T03:33:44.809Z,85.59
2018-04-16T03:36:19.021Z,85.80
2018-04-16T03:38:52.980Z,85.64
2018-04-16T03:41:27.022Z,85.33
2018-04-16T03:44:00.845Z,85.88
2018-04-16T03:46:34.866Z,85.65
2018-04-16T03:49:08.834Z,85.78
2018-04-16T03:51:40.314Z,85.66
2018-04-16T03:54:08.744Z,85.87
2018-04-16T03:56:37.199Z,86.06
2018-04-16T03:59:05.674Z,85.87
2018-04-16T04:01:34.116Z,86.42
2018-04-16T04:04:02.542Z,86.36
2018-04-16T04:06:31.009Z,86.21
2018-04-16T04:08:59.457Z,86.45
2018-04-16T04:11:27.941Z,86.14
2018-04-16T04:13:56.639Z,86.72
2018-04-16T04:16:25.076Z,86.71
2018-04-16T04:18:53.497Z,86.94
2018-04-16T04:21:22.201Z,86.82
2018-04-16T04:24:02.705Z,86.75
2018-04-16T04:26:43.076Z,87.14
2018-04-16T04:29:23.271Z,87.40
2018-04-16T04:31:51.743Z,87.21
2018-04-16T04:34:20.177Z,87.04
2018-04-16T04:36:48.632Z,87.48
2018-04-16T04:39:17.141Z,87.68
2018-04-16T04:41:45.577Z,87.68
2018-04-16T04:44:14.008Z,88.04
2018-04-16T04:46:42.476Z,87.31
2018-04-16T04:49:10.896Z,87.82
2018-04-16T04:51:39.314Z,88.05
2018-04-16T04:54:07.768Z,88.19
2018-04-16T04:56:36.205Z,87.46
2018-04-16T04:59:04.648Z,87.77
2018-04-16T05:01:33.120Z,87.73
2018-04-16T05:04:01.549Z,87.17
2018-04-16T05:06:29.995Z,87.60
2018-04-16T05:08:58.496Z,87.34
2018-04-16T05:11:26.920Z,87.86
2018-04-16T05:13:55.352Z,87.58
2018-04-16T05:16:23.808Z,87.54
2018-04-16T05:18:52.239Z,87.30
2018-04-16T05:21:20.656Z,87.42
2018-04-16T05:23:49.147Z,87.28
2018-04-16T05:26:17.584Z,87.31
2018-04-16T05:28:46.007Z,87.37
2018-04-16T05:31:14.480Z,87.35
2018-04-16T05:33:42.946Z,87.46
2018-04-16T05:36:11.396Z,87.13
2018-04-16T05:38:39.892Z,87.06
2018-04-16T05:41:08.397Z,86.88
2018-04-16T05:43:36.860Z,86.84
2018-04-16T05:46:05.384Z,86.90
2018-04-16T05:48:33.821Z,86.96
2018-04-16T05:51:02.258Z,87.01
2018-04-16T05:53:30.776Z,87.17
2018-04-16T05:55:59.201Z,86.45
2018-04-16T05:58:27.677Z,86.65
2018-04-16T06:00:56.150Z,86.81
2018-04-16T06:03:24.602Z,86.78
2018-04-16T06:05:53.028Z,86.74
2018-04-16T06:08:21.516Z,86.30
2018-04-16T06:10:49.964Z,86.55
2018-04-16T06:13:18.405Z,86.39
2018-04-16T06:15:46.871Z,86.52
2018-04-16T06:18:15.316Z,86.68
2018-04-16T06:20:43.753Z,86.24
2018-04-16T06:23:12.214Z,86.09
2018-04-16T06:25:40.656Z,86.54
2018-04-16T06:28:09.110Z,86.42
2018-04-16T06:30:37.616Z,86.63
2018-04-16T06:33:06.056Z,86.34
2018-04-16T06:35:34.518Z,86.22
2018-04-16T06:38:03.006Z,86.05
2018-04-16T06:40:31.446Z,86.54
2018-04-16T06:42:59.884Z,86.87
2018-04-16T06:45:28.345Z,86.63
2018-04-16T06:47:56.771Z,86.62
2018-04-16T06:50:25.199Z,86.60
2018-04-16T06:52:53.664Z,86.07
2018-04-16T06:55:22.120Z,86.33
2018-04-16T06:57:50.552Z,86.02
2018-04-16T07:00:19.067Z,85.97
2018-04-16T07:02:47.527Z,85.61
2018-04-16T07:05:15.986Z,85.90
2018-04-16T07:07:44.534Z,86.10
2018-04-16T07:10:13.059Z,85.86
2018-04-16T07:12:41.651Z,85.59
2018-04-16T07:15:10.132Z,85.22
2018-04-16T07:17:38.556Z,84.69
2018-04-16T07:20:07.016Z,84.51
2018-04-16T07:22:35.524Z,84.63
2018-04-16T07:25:04.014Z,85.32
2018-04-16T07:27:32.437Z,85.32
2018-04-16T07:30:00.915Z,84.86
2018-04-16T07:32:29.353Z,84.60
2018-04-16T07:34:57.793Z,85.11
2018-04-16T07:37:26.252Z,85.06
2018-04-16T07:39:54.704Z,85.00
2018-04-16T07:42:23.142Z,84.51
2018-04-16T07:44:51.628Z,83.22
2018-04-16T07:47:20.068Z,83.56
2018-04-16T07:49:48.497Z,83.01
2018-04-16T07:52:16.980Z,83.53
2018-04-16T07:54:45.425Z,82.59
2018-04-16T07:57:13.876Z,82.61
2018-04-16T07:59:42.365Z,83.49
2018-04-16T08:02:10.794Z,82.93
2018-04-16T08:04:39.229Z,82.24
2018-04-16T08:07:07.722Z,80.91
2018-04-16T08:09:36.141Z,81.32
2018-04-16T08:12:04.589Z,81.36
2018-04-16T08:14:33.052Z,81.35
2018-04-16T08:17:01.473Z,81.40
2018-04-16T08:19:29.903Z,79.96
2018-04-16T08:21:58.361Z,80.30
2018-04-16T08:24:26.793Z,80.40
2018-04-16T08:26:55.215Z,81.36
2018-04-16T08:29:23.676Z,80.03
2018-04-16T08:31:52.129Z,78.75
2018-04-16T08:34:20.555Z,78.83
2018-04-16T08:36:49.024Z,79.26
2018-04-16T08:39:17.469Z,77.16
2018-04-16T08:41:45.900Z,78.30
2018-04-16T08:44:14.376Z,77.70
2018-04-16T08:46:42.794Z,75.88
2018-04-16T08:49:11.218Z,76.29
2018-04-16T08:51:39.685Z,76.66
2018-04-16T08:54:08.117Z,76.67
2018-04-16T08:56:36.540Z,75.94
2018-04-16T08:59:05.024Z,75.53
2018-04-16T09:01:33.451Z,74.41
2018-04-16T09:04:01.870Z,74.93
2018-04-16T09:06:30.344Z,73.93
2018-04-16T09:08:58.764Z,73.42
2018-04-16T09:11:27.196Z,74.12
2018-04-16T09:13:55.673Z,72.59
2018-04-16T09:16:24.117Z,71.25
2018-04-16T09:18:52.547Z,72.31
2018-04-16T09:21:21.013Z,72.84
2018-04-16T09:23:49.440Z,72.60
2018-04-16T09:26:17.866Z,72.74
2018-04-16T09:28:46.324Z,72.24
2018-04-16T09:31:14.753Z,71.15
2018-04-16T09:33:43.169Z,70.16
2018-04-16T09:36:11.645Z,71.53
2018-04-16T09:38:40.065Z,71.30
2018-04-16T09:41:08.510Z,71.17
2018-04-16T09:43:36.991Z,70.02
2018-04-16T09:46:05.422Z,70.54
2018-04-16T09:48:33.860Z,71.13
2018-04-16T09:51:02.317Z,69.87
2018-04-16T09:53:30.748Z,67.86
2018-04-16T09:55:59.213Z,66.73
2018-04-16T09:58:27.706Z,66.79
2018-04-16T10:00:56.184Z,67.15
2018-04-16T10:03:24.641Z,67.21
2018-04-16T10:05:53.139Z,66.48
2018-04-16T10:08:21.561Z,64.84
2018-04-16T10:10:49.976Z,65.05
2018-04-16T10:13:18.461Z,65.97
2018-04-16T10:15:46.876Z,65.97
2018-04-16T10:18:15.296Z,65.00
2018-04-16T10:20:43.986Z,64.86
2018-04-16T10:23:12.406Z,64.18
2018-04-16T10:25:40.836Z,65.25
2018-04-16T10:28:09.308Z,64.31
2018-04-16T10:30:37.762Z,64.08
2018-04-16T10:33:06.192Z,63.35
2018-04-16T10:35:34.678Z,62.68
2018-04-16T10:38:03.105Z,62.71
2018-04-16T10:40:31.556Z,62.53
2018-04-16T10:43:00.037Z,61.31
2018-04-16T10:45:28.490Z,60.43
2018-04-16T10:47:56.909Z,59.95
2018-04-16T10:50:25.381Z,60.49
2018-04-16T10:52:53.819Z,60.85
2018-04-16T10:55:22.238Z,59.96
2018-04-16T10:57:50.712Z,59.38
2018-04-16T11:00:19.143Z,58.60
2018-04-16T11:02:47.573Z,59.20
2018-04-16T11:05:16.072Z,58.94
2018-04-16T11:07:44.496Z,59.29
2018-04-16T11:10:12.928Z,59.62
2018-04-16T11:12:41.393Z,59.30
2018-04-16T11:15:09.816Z,59.03
2018-04-16T11:17:38.249Z,59.69
2018-04-16T11:20:06.742Z,57.37
2018-04-16T11:22:35.180Z,57.93
2018-04-16T11:25:03.636Z,59.20
2018-04-16T11:27:32.126Z,56.80
2018-04-16T11:30:00.573Z,55.98
2018-04-16T11:32:29.024Z,56.16
2018-04-16T11:34:57.496Z,56.56
2018-04-16T11:37:25.908Z,55.96
2018-04-16T11:39:54.382Z,55.46
2018-04-16T11:42:22.845Z,56.47
2018-04-16T11:44:51.282Z,55.52
2018-04-16T11:47:19.703Z,55.91
2018-04-16T11:49:48.188Z,57.26
2018-04-16T11:52:16.620Z,58.00
2018-04-16T11:54:45.058Z,56.60
2018-04-16T11:57:13.529Z,57.30
2018-04-16T11:59:41.984Z,100.00
2018-04-16T12:02:10.444Z,59.29
2018-04-16T12:04:38.931Z,58.06
2018-04-16T12:07:07.426Z,56.44
2018-04-16T12:09:35.852Z,56.14
2018-04-16T12:12:04.344Z,100.00
2018-04-16T12:14:32.788Z,100.00
2018-04-16T12:17:01.213Z,54.81
2018-04-16T12:19:29.768Z,100.00
2018-04-16T12:21:58.234Z,100.00
2018-04-16T12:24:26.692Z,100.00
2018-04-16T12:26:55.189Z,100.00
2018-04-16T12:29:23.638Z,100.00
2018-04-16T12:31:52.084Z,100.00
2018-04-16T12:34:20.572Z,100.00
2018-04-16T12:36:49.034Z,100.00
2018-04-16T12:39:17.488Z,100.00
2018-04-16T12:41:45.998Z,100.00
2018-04-16T12:44:14.444Z,100.00
2018-04-16T12:46:42.892Z,100.00
2018-04-16T12:49:11.371Z,100.00
2018-04-16T12:51:39.831Z,100.00
2018-04-16T12:54:08.272Z,100.00
2018-04-16T12:56:36.761Z,100.00
2018-04-16T12:59:05.209Z,100.00
2018-04-16T13:01:33.656Z,100.00
2018-04-16T13:04:02.183Z,100.00
2018-04-16T13:06:30.636Z,100.00
2018-04-16T13:08:59.107Z,100.00
2018-04-16T13:11:27.605Z,100.00
2018-04-16T13:13:56.055Z,100.00
2018-04-16T13:16:24.517Z,100.00
2018-04-16T13:18:53.025Z,100.00
2018-04-16T13:21:21.501Z,100.00
2018-04-16T13:23:49.959Z,100.00
2018-04-16T13:26:18.448Z,100.00
2018-04-16T13:28:46.899Z,100.00
2018-04-16T13:31:15.352Z,100.00
2018-04-16T13:33:43.833Z,100.00
2018-04-16T13:36:12.285Z,100.00
2018-04-16T13:38:40.716Z,100.00
2018-04-16T13:41:09.199Z,100.00
2018-04-16T13:43:37.639Z,100.00
2018-04-16T13:46:06.084Z,100.00
2018-04-16T13:48:34.590Z,100.00
2018-04-16T13:51:03.044Z,100.00
2018-04-16T13:53:31.493Z,100.00
2018-04-16T13:56:00.023Z,100.00
2018-04-16T13:58:28.467Z,100.00
2018-04-16T14:00:56.929Z,100.00
2018-04-16T14:03:25.405Z,100.00
2018-04-16T14:05:53.849Z,100.00
2018-04-16T14:08:22.285Z,100.00
2018-04-16T14:10:50.759Z,100.00
2018-04-16T14:13:19.204Z,100.00
2018-04-16T14:15:47.652Z,100.00
2018-04-16T14:18:16.144Z,100.00
2018-04-16T14:20:44.580Z,100.00
2018-04-16T14:23:13.045Z,100.00
2018-04-16T14:25:41.529Z,100.00
2018-04-16T14:28:09.985Z,100.00
2018-04-16T14:30:38.435Z,100.00
2018-04-16T14:33:06.921Z,100.00
2018-04-16T14:35:35.370Z,100.00
2018-04-16T14:38:03.811Z,100.00
2018-04-16T14:40:32.309Z,100.00
2018-04-16T14:43:00.755Z,100.00
2018-04-16T14:45:29.251Z,100.00
2018-04-16T14:47:57.767Z,100.00
2018-04-16T14:50:26.236Z,100.00
2018-04-16T14:52:54.680Z,100.00
2018-04-16T14:55:23.184Z,100.00
2018-04-16T14:57:51.649Z,100.00
2018-04-16T15:00:20.105Z,100.00
2018-04-16T15:02:48.601Z,100.00
2018-04-16T15:05:17.076Z,100.00
2018-04-16T15:07:45.531Z,100.00
2018-04-16T15:10:14.018Z,100.00
2018-04-16T15:12:42.460Z,100.00
2018-04-16T15:15:10.915Z,100.00
2018-04-16T15:17:39.417Z,100.00
2018-04-16T15:20:07.890Z,100.00
2018-04-16T15:22:36.336Z,100.00
2018-04-16T15:25:04.865Z,100.00
2018-04-16T15:27:33.316Z,100.00
2018-04-16T15:30:01.768Z,100.00
2018-04-16T15:32:30.487Z,100.00
2018-04-16T15:34:58.936Z,100.00
2018-04-16T15:37:27.418Z,100.00
2018-04-16T15:39:55.941Z,100.00
2018-04-16T15:42:24.396Z,100.00
2018-04-16T15:44:52.856Z,100.00
2018-04-16T15:47:21.372Z,100.00
2018-04-16T15:49:49.854Z,100.00
2018-04-16T15:52:18.294Z,100.00
2018-04-16T15:54:46.796Z,100.00
2018-04-16T15:57:15.241Z,100.00
2018-04-16T15:59:43.752Z,100.00
2018-04-16T16:02:12.250Z,100.00
2018-04-16T16:04:40.708Z,100.00
2018-04-16T16:07:09.167Z,100.00
2018-04-16T16:09:37.865Z,100.00
2018-04-16T16:12:06.362Z,100.00
2018-04-16T16:14:34.856Z,100.00
2018-04-16T16:17:03.369Z,100.00
2018-04-16T16:19:31.820Z,100.00
2018-04-16T16:22:00.321Z,100.00
2018-04-16T16:24:28.886Z,100.00
2018-04-16T16:26:57.340Z,100.00
2018-04-16T16:29:25.834Z,100.00
2018-04-16T16:31:54.371Z,100.00
2018-04-16T16:34:22.841Z,100.00
2018-04-16T16:36:51.301Z,100.00
2018-04-16T16:39:19.795Z,100.00
2018-04-16T16:41:48.248Z,100.00
2018-04-16T16:44:16.706Z,100.00
2018-04-16T16:46:45.203Z,100.00
2018-04-16T16:49:13.727Z,100.00
2018-04-16T16:51:42.213Z,100.00
2018-04-16T16:54:10.763Z,100.00
2018-04-16T16:56:39.188Z,100.00
2018-04-16T16:59:07.669Z,100.00
2018-04-16T17:01:36.255Z,100.00
2018-04-16T17:04:04.736Z,100.00
2018-04-16T17:06:33.227Z,100.00
2018-04-16T17:09:01.827Z,100.00
2018-04-16T17:11:30.299Z,100.00
2018-04-16T17:13:58.764Z,100.00
2018-04-16T17:16:27.288Z,100.00
2018-04-16T17:18:55.756Z,100.00
2018-04-16T17:21:24.236Z,100.00
2018-04-16T17:23:52.760Z,100.00
2018-04-16T17:26:21.215Z,100.00
2018-04-16T17:28:49.656Z,100.00
2018-04-16T17:31:18.173Z,100.00
2018-04-16T17:33:46.616Z,100.00
2018-04-16T17:36:15.068Z,100.00
2018-04-16T17:38:43.555Z,100.00
2018-04-16T17:41:12.021Z,100.00
2018-04-16T17:43:40.477Z,100.00
2018-04-16T17:46:08.968Z,100.00
2018-04-16T17:48:37.416Z,100.00
2018-04-16T17:51:05.867Z,100.00
2018-04-16T17:53:34.456Z,100.00
2018-04-16T17:56:02.916Z,100.00
2018-04-16T17:58:31.749Z,100.00
2018-04-16T18:01:00.254Z,100.00
2018-04-16T18:03:28.714Z,100.00
2018-04-16T18:05:57.161Z,100.00
2018-04-16T18:08:25.653Z,100.00
2018-04-16T18:10:54.987Z,100.00
2018-04-16T18:13:23.625Z,100.00
2018-04-16T18:15:52.156Z,100.00
2018-04-16T18:18:20.604Z,100.00
2018-04-16T18:20:49.050Z,100.00
2018-04-16T18:23:17.562Z,100.00
2018-04-16T18:25:46.027Z,100.00
2018-04-16T18:28:14.526Z,100.00
2018-04-16T18:30:43.033Z,100.00
2018-04-16T18:33:11.499Z,100.00
2018-04-16T18:35:39.976Z,100.00
2018-04-16T18:38:08.500Z,100.00
2018-04-16T18:40:36.952Z,100.00
2018-04-16T18:43:05.412Z,100.00
2018-04-16T18:45:33.928Z,100.00
2018-04-16T18:48:02.426Z,100.00
2018-04-16T18:50:30.893Z,100.00
2018-04-16T18:53:00.248Z,100.00
2018-04-16T18:56:13.226Z,64.10
2018-04-16T18:58:41.697Z,64.40
2018-04-16T19:01:10.120Z,65.35
2018-04-16T19:03:38.600Z,64.75
2018-04-16T19:06:07.088Z,64.92
2018-04-16T19:08:35.515Z,65.27
2018-04-16T19:11:03.967Z,64.86
2018-04-16T19:13:32.472Z,65.90
2018-04-16T19:16:00.928Z,66.01
2018-04-16T19:18:29.379Z,66.24
2018-04-16T19:21:03.358Z,66.79
2018-04-16T19:23:31.802Z,66.82
2018-04-16T19:26:00.234Z,66.94
2018-04-16T19:28:28.727Z,66.94
2018-04-16T19:30:57.270Z,67.01
2018-04-16T19:33:31.989Z,67.11
2018-04-16T19:36:00.428Z,67.28
2018-04-16T19:38:28.872Z,67.50
2018-04-16T19:40:57.344Z,67.64
2018-04-16T19:43:25.779Z,67.86
2018-04-16T19:45:54.214Z,67.49
2018-04-16T19:48:22.720Z,66.65
2018-04-16T19:50:51.143Z,66.05
2018-04-16T19:53:19.588Z,65.81
2018-04-16T19:55:53.536Z,66.32
2018-04-16T19:58:21.992Z,67.09
2018-04-16T20:00:50.434Z,67.16
2018-04-16T20:03:24.480Z,67.72
2018-04-16T20:05:52.934Z,67.96
2018-04-16T20:08:21.373Z,68.62
2018-04-16T20:10:49.909Z,69.07
2018-04-16T20:13:18.367Z,69.23
2018-04-16T20:15:46.837Z,69.31
2018-04-16T20:18:15.297Z,69.52
2018-04-16T20:20:43.741Z,69.62
2018-04-16T20:23:12.175Z,70.30
2018-04-16T20:25:40.675Z,70.23
2018-04-16T20:28:09.115Z,70.35
2018-04-16T20:30:37.565Z,70.70
2018-04-16T20:33:06.059Z,70.63
2018-04-16T20:35:34.508Z,70.78
2018-04-16T20:38:02.966Z,70.85
2018-04-16T20:40:31.445Z,70.84
2018-04-16T20:42:59.868Z,71.16
2018-04-16T20:45:28.304Z,71.18
2018-04-16T20:47:56.768Z,71.67
2018-04-16T20:50:25.196Z,71.74
2018-04-16T20:52:53.699Z,72.17
2018-04-16T20:55:22.183Z,72.35
2018-04-16T20:57:50.620Z,72.47
2018-04-16T21:00:19.049Z,72.62
2018-04-16T21:02:47.511Z,72.58
2018-04-16T21:05:15.940Z,72.62
2018-04-16T21:07:44.368Z,72.67
2018-04-16T21:10:12.845Z,73.46
2018-04-16T21:12:41.275Z,73.94
2018-04-16T21:15:09.709Z,74.23
2018-04-16T21:17:38.176Z,74.60
2018-04-16T21:20:06.608Z,74.56
2018-04-16T21:22:35.034Z,75.02
2018-04-16T21:25:03.553Z,75.05
2018-04-16T21:27:31.986Z,73.98
2018-04-16T21:30:00.421Z,73.37
2018-04-16T21:32:28.903Z,73.35
2018-04-16T21:34:57.336Z,72.77
2018-04-16T21:37:25.771Z,73.08
2018-04-16T21:39:54.256Z,73.39
2018-04-16T21:42:22.687Z,73.95
2018-04-16T21:44:51.124Z,74.76
2018-04-16T21:47:19.613Z,74.95
2018-04-16T21:49:48.046Z,75.21
2018-04-16T21:52:16.491Z,75.44
2018-04-16T21:54:44.984Z,75.84
2018-04-16T21:57:13.416Z,75.73
2018-04-16T21:59:41.848Z,76.02
2018-04-16T22:02:10.324Z,75.97
2018-04-16T22:04:38.752Z,76.17
2018-04-16T22:07:07.192Z,75.58
2018-04-16T22:09:35.674Z,75.57
2018-04-16T22:12:04.109Z,75.10
2018-04-16T22:14:32.556Z,73.82
2018-04-16T22:17:01.206Z,72.82
2018-04-16T22:19:29.660Z,72.44
2018-04-16T22:21:58.073Z,72.18
2018-04-16T22:24:26.531Z,72.09
2018-04-16T22:26:54.948Z,72.31
2018-04-16T22:29:23.367Z,72.32
2018-04-16T22:31:51.843Z,72.35
2018-04-16T22:34:20.301Z,72.53
2018-04-16T22:36:48.722Z,72.83
2018-04-16T22:39:17.186Z,72.40
2018-04-16T22:41:45.612Z,72.23
2018-04-16T22:44:14.068Z,73.28
2018-04-16T22:46:42.540Z,73.81
2018-04-16T22:49:10.962Z,74.66
2018-04-16T22:51:39.417Z,75.05
2018-04-16T22:54:07.869Z,74.88
2018-04-16T22:56:36.290Z,74.96
2018-04-16T22:59:04.738Z,74.82
2018-04-16T23:01:33.216Z,75.18
2018-04-16T23:04:01.643Z,74.43
2018-04-16T23:06:30.060Z,74.34
2018-04-16T23:08:58.516Z,73.64
2018-04-16T23:11:27.309Z,73.58
2018-04-16T23:13:55.763Z,73.35
2018-04-16T23:16:24.234Z,73.10
2018-04-16T23:18:52.662Z,73.34
2018-04-16T23:21:21.101Z,73.36
2018-04-16T23:23:49.567Z,73.35
2018-04-16T23:26:17.988Z,73.00
2018-04-16T23:28:46.421Z,73.67
2018-04-16T23:31:14.913Z,73.53
2018-04-16T23:33:43.352Z,73.42
2018-04-16T23:36:11.827Z,73.81
2018-04-16T23:38:40.269Z,73.88
2018-04-16T23:41:08.708Z,74.15
2018-04-16T23:43:37.124Z,74.42
2018-04-16T23:46:05.584Z,74.58
2018-04-16T23:48:34.010Z,74.67
2018-04-16T23:51:02.456Z,74.64
2018-04-16T23:53:30.905Z,74.76
2018-04-16T23:55:59.335Z,74.85
2018-04-16T23:58:27.762Z,75.19
